sensor_id;sensor_type;location;lat;lon;timestamp;P1;durP1;ratioP1;P2;durP2;ratioP2
58466;SDS011;44255;49.244;7.726;2023-05-07T03:31:41;2.47;;;1.90;;
58466;SDS011;44255;49.244;7.726;2023-05-07T03:34:06;4.67;;;1.90;;
58466;SDS011;44255;49.244;7.726;2023-05-07T03:36:32;5.60;;;2.43;;
58466;SDS011;44255;49.244;7.726;2023-05-07T03:38:57;6.70;;;2.30;;
58466;SDS011;44255;49.244;7.726;2023-05-07T03:41:22;9.37;;;2.20;;
58466;SDS011;44255;49.244;7.726;2023-05-07T03:43:48;2.50;;;1.90;;
58466;SDS011;44255;49.244;7.726;2023-05-07T03:46:13;3.30;;;2.33;;
58466;SDS011;44255;49.244;7.726;2023-05-07T03:48:38;6.40;;;2.13;;
58466;SDS011;44255;49.244;7.726;2023-05-07T03:51:03;2.57;;;2.00;;
58466;SDS011;44255;49.244;7.726;2023-05-07T03:53:29;3.70;;;2.07;;
58466;SDS011;44255;49.244;7.726;2023-05-07T03:55:54;4.40;;;2.35;;
58466;SDS011;44255;49.244;7.726;2023-05-07T03:58:19;2.87;;;2.00;;
58466;SDS011;44255;49.244;7.726;2023-05-07T04:00:45;2.43;;;2.20;;
58466;SDS011;44255;49.244;7.726;2023-05-07T04:03:10;2.22;;;2.03;;
58466;SDS011;44255;49.244;7.726;2023-05-07T04:05:35;6.43;;;2.30;;
58466;SDS011;44255;49.244;7.726;2023-05-07T04:08:01;4.97;;;2.23;;
58466;SDS011;44255;49.244;7.726;2023-05-07T04:10:27;4.50;;;2.03;;
58466;SDS011;44255;49.244;7.726;2023-05-07T04:12:53;5.25;;;2.00;;
58466;SDS011;44255;49.244;7.726;2023-05-07T04:15:18;4.43;;;2.30;;
58466;SDS011;44255;49.244;7.726;2023-05-07T04:17:43;5.63;;;2.07;;
58466;SDS011;44255;49.244;7.726;2023-05-07T04:20:10;4.40;;;2.43;;
58466;SDS011;44255;49.244;7.726;2023-05-07T04:22:40;5.80;;;2.17;;
58466;SDS011;44255;49.244;7.726;2023-05-07T04:25:06;2.90;;;2.40;;
58466;SDS011;44255;49.244;7.726;2023-05-07T04:27:34;5.95;;;2.10;;
58466;SDS011;44255;49.244;7.726;2023-05-07T04:29:59;3.23;;;2.30;;
58466;SDS011;44255;49.244;7.726;2023-05-07T04:34:50;2.67;;;2.10;;
58466;SDS011;44255;49.244;7.726;2023-05-07T04:37:16;5.47;;;2.33;;
58466;SDS011;44255;49.244;7.726;2023-05-07T04:39:41;4.07;;;2.00;;
58466;SDS011;44255;49.244;7.726;2023-05-07T04:42:06;4.70;;;2.50;;
58466;SDS011;44255;49.244;7.726;2023-05-07T04:44:33;2.70;;;2.20;;
58466;SDS011;44255;49.244;7.726;2023-05-07T04:46:59;2.80;;;2.33;;
58466;SDS011;44255;49.244;7.726;2023-05-07T04:49:24;3.93;;;2.07;;
58466;SDS011;44255;49.244;7.726;2023-05-07T04:51:50;2.87;;;2.00;;
58466;SDS011;44255;49.244;7.726;2023-05-07T04:54:15;2.53;;;2.33;;
58466;SDS011;44255;49.244;7.726;2023-05-07T04:56:40;7.97;;;2.63;;
58466;SDS011;44255;49.244;7.726;2023-05-07T04:59:06;4.38;;;3.03;;
58466;SDS011;44255;49.244;7.726;2023-05-07T05:01:31;7.97;;;2.43;;
58466;SDS011;44255;49.244;7.726;2023-05-07T05:03:57;2.43;;;2.20;;
58466;SDS011;44255;49.244;7.726;2023-05-07T05:06:22;3.33;;;2.53;;
58466;SDS011;44255;49.244;7.726;2023-05-07T05:08:47;3.80;;;2.43;;
58466;SDS011;44255;49.244;7.726;2023-05-07T05:11:13;4.43;;;2.40;;
58466;SDS011;44255;49.244;7.726;2023-05-07T05:13:38;4.60;;;2.23;;
58466;SDS011;44255;49.244;7.726;2023-05-07T05:16:03;4.07;;;2.57;;
58466;SDS011;44255;49.244;7.726;2023-05-07T05:18:29;3.22;;;2.35;;
58466;SDS011;44255;49.244;7.726;2023-05-07T05:20:54;3.77;;;2.40;;
58466;SDS011;44255;49.244;7.726;2023-05-07T05:23:19;4.82;;;2.35;;
58466;SDS011;44255;49.244;7.726;2023-05-07T05:25:45;4.30;;;2.80;;
58466;SDS011;44255;49.244;7.726;2023-05-07T05:28:10;2.30;;;2.03;;
58466;SDS011;44255;49.244;7.726;2023-05-07T05:30:35;5.20;;;2.23;;
58466;SDS011;44255;49.244;7.726;2023-05-07T05:33:01;3.07;;;2.33;;
58466;SDS011;44255;49.244;7.726;2023-05-07T05:35:26;3.27;;;2.33;;
58466;SDS011;44255;49.244;7.726;2023-05-07T05:37:51;3.13;;;2.10;;
58466;SDS011;44255;49.244;7.726;2023-05-07T05:40:16;3.27;;;2.50;;
58466;SDS011;44255;49.244;7.726;2023-05-07T05:42:42;4.60;;;2.33;;
58466;SDS011;44255;49.244;7.726;2023-05-07T05:45:07;7.63;;;2.80;;
58466;SDS011;44255;49.244;7.726;2023-05-07T05:47:33;2.80;;;2.55;;
58466;SDS011;44255;49.244;7.726;2023-05-07T05:49:58;5.70;;;2.47;;
58466;SDS011;44255;49.244;7.726;2023-05-07T05:52:24;3.00;;;2.33;;
58466;SDS011;44255;49.244;7.726;2023-05-07T05:54:49;4.60;;;2.57;;
58466;SDS011;44255;49.244;7.726;2023-05-07T05:57:14;3.60;;;2.53;;
58466;SDS011;44255;49.244;7.726;2023-05-07T05:59:40;7.05;;;2.85;;
58466;SDS011;44255;49.244;7.726;2023-05-07T06:02:05;6.90;;;2.97;;
58466;SDS011;44255;49.244;7.726;2023-05-07T06:04:31;4.40;;;2.50;;
58466;SDS011;44255;49.244;7.726;2023-05-07T06:06:56;2.50;;;2.30;;
58466;SDS011;44255;49.244;7.726;2023-05-07T06:09:22;5.87;;;2.13;;
58466;SDS011;44255;49.244;7.726;2023-05-07T06:11:47;4.40;;;2.20;;
58466;SDS011;44255;49.244;7.726;2023-05-07T06:14:12;2.50;;;2.10;;
58466;SDS011;44255;49.244;7.726;2023-05-07T06:16:37;3.43;;;2.57;;
58466;SDS011;44255;49.244;7.726;2023-05-07T06:19:03;4.63;;;2.53;;
58466;SDS011;44255;49.244;7.726;2023-05-07T06:21:28;4.00;;;2.20;;
58466;SDS011;44255;49.244;7.726;2023-05-07T06:23:53;3.87;;;2.43;;
58466;SDS011;44255;49.244;7.726;2023-05-07T06:26:19;4.43;;;2.40;;
58466;SDS011;44255;49.244;7.726;2023-05-07T06:28:45;3.22;;;2.50;;
58466;SDS011;44255;49.244;7.726;2023-05-07T06:31:15;3.97;;;2.57;;
58466;SDS011;44255;49.244;7.726;2023-05-07T06:33:41;2.75;;;2.15;;
58466;SDS011;44255;49.244;7.726;2023-05-07T06:36:07;4.97;;;2.20;;
58466;SDS011;44255;49.244;7.726;2023-05-07T06:38:33;2.90;;;2.17;;
58466;SDS011;44255;49.244;7.726;2023-05-07T06:40:58;4.80;;;2.73;;
58466;SDS011;44255;49.244;7.726;2023-05-07T06:43:23;3.93;;;2.47;;
58466;SDS011;44255;49.244;7.726;2023-05-07T06:45:49;3.80;;;2.47;;
58466;SDS011;44255;49.244;7.726;2023-05-07T06:48:14;3.10;;;2.40;;
58466;SDS011;44255;49.244;7.726;2023-05-07T06:50:39;4.22;;;2.17;;
58466;SDS011;44255;49.244;7.726;2023-05-07T06:53:05;4.43;;;2.20;;
58466;SDS011;44255;49.244;7.726;2023-05-07T06:55:30;3.40;;;2.47;;
58466;SDS011;44255;49.244;7.726;2023-05-07T06:57:55;2.13;;;1.90;;
58466;SDS011;44255;49.244;7.726;2023-05-07T07:00:23;2.45;;;2.10;;
58466;SDS011;44255;49.244;7.726;2023-05-07T07:02:48;2.57;;;2.00;;
58466;SDS011;44255;49.244;7.726;2023-05-07T07:05:13;4.00;;;2.07;;
58466;SDS011;44255;49.244;7.726;2023-05-07T07:07:38;1.90;;;1.70;;
58466;SDS011;44255;49.244;7.726;2023-05-07T07:10:04;2.93;;;2.00;;
58466;SDS011;44255;49.244;7.726;2023-05-07T07:12:30;4.10;;;1.70;;
58466;SDS011;44255;49.244;7.726;2023-05-07T07:14:55;1.80;;;1.60;;
58466;SDS011;44255;49.244;7.726;2023-05-07T07:17:20;4.87;;;1.63;;
58466;SDS011;44255;49.244;7.726;2023-05-07T07:19:45;2.53;;;1.80;;
58466;SDS011;44255;49.244;7.726;2023-05-07T07:22:11;1.87;;;1.63;;
58466;SDS011;44255;49.244;7.726;2023-05-07T07:24:36;3.57;;;1.60;;
58466;SDS011;44255;49.244;7.726;2023-05-07T07:27:01;4.50;;;1.77;;
58466;SDS011;44255;49.244;7.726;2023-05-07T07:29:26;3.77;;;1.60;;
58466;SDS011;44255;49.244;7.726;2023-05-07T07:31:52;3.17;;;1.40;;
58466;SDS011;44255;49.244;7.726;2023-05-07T07:34:17;1.40;;;1.30;;
58466;SDS011;44255;49.244;7.726;2023-05-07T07:36:42;2.23;;;1.37;;
58466;SDS011;44255;49.244;7.726;2023-05-07T07:39:07;3.20;;;1.50;;
58466;SDS011;44255;49.244;7.726;2023-05-07T07:41:33;2.72;;;1.63;;
58466;SDS011;44255;49.244;7.726;2023-05-07T07:43:58;2.83;;;1.30;;
58466;SDS011;44255;49.244;7.726;2023-05-07T07:46:23;2.13;;;1.07;;
58466;SDS011;44255;49.244;7.726;2023-05-07T07:48:49;2.10;;;1.40;;
58466;SDS011;44255;49.244;7.726;2023-05-07T07:51:14;3.10;;;1.80;;
58466;SDS011;44255;49.244;7.726;2023-05-07T07:53:39;3.90;;;2.23;;
58466;SDS011;44255;49.244;7.726;2023-05-07T07:56:06;2.95;;;1.48;;
58466;SDS011;44255;49.244;7.726;2023-05-07T07:58:31;2.80;;;1.43;;
58466;SDS011;44255;49.244;7.726;2023-05-07T08:00:56;1.40;;;1.30;;
58466;SDS011;44255;49.244;7.726;2023-05-07T08:03:21;2.23;;;1.30;;
58466;SDS011;44255;49.244;7.726;2023-05-07T08:05:47;7.28;;;1.25;;
58466;SDS011;44255;49.244;7.726;2023-05-07T08:08:14;1.60;;;1.38;;
58466;SDS011;44255;49.244;7.726;2023-05-07T08:10:40;1.70;;;1.10;;
58466;SDS011;44255;49.244;7.726;2023-05-07T08:13:05;4.20;;;1.37;;
58466;SDS011;44255;49.244;7.726;2023-05-07T08:15:31;1.70;;;1.45;;
58466;SDS011;44255;49.244;7.726;2023-05-07T08:17:56;3.35;;;1.40;;
58466;SDS011;44255;49.244;7.726;2023-05-07T08:20:25;1.80;;;1.25;;
58466;SDS011;44255;49.244;7.726;2023-05-07T08:22:51;2.28;;;1.33;;
58466;SDS011;44255;49.244;7.726;2023-05-07T08:25:16;3.35;;;1.25;;
58466;SDS011;44255;49.244;7.726;2023-05-07T08:27:41;2.10;;;1.40;;
58466;SDS011;44255;49.244;7.726;2023-05-07T08:30:07;3.37;;;1.23;;
58466;SDS011;44255;49.244;7.726;2023-05-07T08:32:32;2.35;;;1.27;;
58466;SDS011;44255;49.244;7.726;2023-05-07T08:34:58;2.17;;;1.23;;
58466;SDS011;44255;49.244;7.726;2023-05-07T08:37:23;2.63;;;1.30;;
58466;SDS011;44255;49.244;7.726;2023-05-07T08:39:48;1.20;;;1.10;;
58466;SDS011;44255;49.244;7.726;2023-05-07T08:42:14;2.25;;;1.38;;
58466;SDS011;44255;49.244;7.726;2023-05-07T08:44:41;2.85;;;1.40;;
58466;SDS011;44255;49.244;7.726;2023-05-07T08:47:11;1.48;;;1.38;;
58466;SDS011;44255;49.244;7.726;2023-05-07T08:49:37;1.30;;;1.20;;
58466;SDS011;44255;49.244;7.726;2023-05-07T08:52:02;3.75;;;1.17;;
58466;SDS011;44255;49.244;7.726;2023-05-07T08:54:28;2.50;;;1.40;;
58466;SDS011;44255;49.244;7.726;2023-05-07T08:56:54;1.52;;;1.42;;
58466;SDS011;44255;49.244;7.726;2023-05-07T08:59:19;1.37;;;1.27;;
58466;SDS011;44255;49.244;7.726;2023-05-07T09:01:45;1.73;;;1.43;;
58466;SDS011;44255;49.244;7.726;2023-05-07T09:04:10;4.55;;;1.27;;
